Time;durP1;ratioP1;P1;durP2;ratioP2;P2;SDS_P1;SDS_P2;PMS_P1;PMS_P2;Temp;Humidity;BMP_temperature;BMP_pressure;BME280_temperature;BME280_humidity;BME280_pressure;Samples;Min_cycle;Max_cycle;Signal;HPM_P1;HPM_P2
2023/04/08 00:02:09;;;;;;;;;1.00;0.00;;;;;22.98;35.75;102188.19;5078055;28;45604;-72
2023/04/08 00:04:34;;;;;;;;;1.00;1.00;;;;;22.99;35.49;102186.38;5078723;28;46355;-71
2023/04/08 00:06:59;;;;;;;;;1.00;1.00;;;;;22.98;35.93;102185.53;5078275;28;45375;-72
2023/04/08 00:09:25;;;;;;;;;0.33;0.00;;;;;22.90;35.57;102170.38;5078562;28;45395;-71
2023/04/08 00:11:51;;;;;;;;;0.00;0.00;;;;;22.98;35.51;102182.88;5078650;28;45395;-72
2023/04/08 00:14:17;;;;;;;;;1.00;1.00;;;;;23.00;35.81;102182.75;5078369;28;46236;-70
2023/04/08 00:16:42;;;;;;;;;0.00;0.00;;;;;23.01;36.25;102187.06;5078395;28;45298;-72
2023/04/08 00:19:07;;;;;;;;;1.00;1.00;;;;;23.00;35.62;102188.91;5078562;28;45198;-72
2023/04/08 00:21:33;;;;;;;;;0.67;0.67;;;;;23.01;35.96;102181.75;5076997;28;45317;-72
2023/04/08 00:23:58;;;;;;;;;0.00;0.00;;;;;22.92;36.02;102167.59;5078516;28;45860;-72
2023/04/08 00:26:23;;;;;;;;;1.00;1.00;;;;;22.96;36.32;102176.91;5078286;28;45469;-72
2023/04/08 00:28:49;;;;;;;;;1.00;1.00;;;;;22.99;35.86;102175.75;5078345;28;45352;-71
2023/04/08 00:31:14;;;;;;;;;1.00;1.00;;;;;22.97;36.02;102181.25;5076941;28;45482;-72
2023/04/08 00:33:39;;;;;;;;;2.00;0.00;;;;;22.93;36.23;102174.56;5078085;28;47060;-72
2023/04/08 00:36:05;;;;;;;;;0.33;0.33;;;;;22.95;36.14;102180.56;5077744;28;45385;-72
2023/04/08 00:38:30;;;;;;;;;1.33;1.33;;;;;22.94;36.33;102179.72;5078123;28;45352;-71
2023/04/08 00:40:57;;;;;;;;;0.00;0.00;;;;;22.93;35.98;102183.34;5078109;28;45416;-72
2023/04/08 00:43:22;;;;;;;;;1.33;1.33;;;;;22.92;35.77;102181.72;5077810;28;46385;-72
2023/04/08 00:45:48;;;;;;;;;0.00;0.00;;;;;22.87;36.12;102170.72;5077998;28;45393;-72
2023/04/08 00:48:13;;;;;;;;;1.00;0.00;;;;;22.92;35.99;102188.84;5078047;28;45404;-72
2023/04/08 00:50:39;;;;;;;;;1.33;1.00;;;;;22.90;35.94;102178.34;5077659;28;45486;-71
2023/04/08 00:53:04;;;;;;;;;2.00;1.00;;;;;22.84;35.80;102165.72;5077909;28;46811;-70
2023/04/08 00:55:30;;;;;;;;;0.00;0.00;;;;;22.89;36.03;102182.00;5077776;28;45443;-72
2023/04/08 00:57:56;;;;;;;;;1.00;1.00;;;;;22.90;35.78;102182.84;5078149;28;45329;-72
2023/04/08 01:00:22;;;;;;;;;1.00;1.00;;;;;22.82;35.72;102173.81;5077895;28;45345;-72
2023/04/08 01:03:15;;;;;;;;;2.00;1.00;;;;;22.87;35.69;102186.63;5077387;28;47010;-72
2023/04/08 01:05:55;;;;;;;;;1.00;1.00;;;;;22.88;35.84;102190.09;5072729;28;45223;-72
2023/04/08 01:08:23;;;;;;;;;1.67;1.00;;;;;22.86;36.10;102182.31;5077716;28;45411;-72
2023/04/08 01:10:52;;;;;;;;;1.00;1.00;;;;;22.79;36.15;102179.44;5077301;28;45411;-72
2023/04/08 01:13:22;;;;;;;;;2.00;1.00;;;;;22.86;35.63;102190.28;5077324;28;47095;-72
2023/04/08 01:15:49;;;;;;;;;1.00;1.00;;;;;22.87;35.99;102183.16;5077328;28;45319;-72
2023/04/08 01:18:16;;;;;;;;;1.00;1.00;;;;;22.88;36.02;102188.28;5077541;28;45383;-72
2023/04/08 01:20:43;;;;;;;;;1.33;1.00;;;;;22.89;35.41;102183.81;5077047;28;45408;-71
2023/04/08 01:23:44;;;;;;;;;2.33;2.00;;;;;22.90;35.40;102190.81;5077273;28;46337;-72
2023/04/08 01:26:20;;;;;;;;;2.00;1.00;;;;;22.81;35.53;102174.81;4994655;28;45463;-72
2023/04/08 01:28:50;;;;;;;;;1.00;1.00;;;;;22.91;35.33;102187.16;4995050;28;45370;-72
2023/04/08 01:31:16;;;;;;;;;1.00;1.00;;;;;22.91;35.56;102188.00;4994827;28;45298;-72
2023/04/08 01:33:42;;;;;;;;;1.00;1.00;;;;;22.92;35.34;102188.84;4994048;28;46382;-71
2023/04/08 01:36:09;;;;;;;;;2.00;1.00;;;;;22.86;35.59;102177.00;4994684;28;45407;-70
2023/04/08 01:38:36;;;;;;;;;1.33;1.33;;;;;22.92;35.78;102187.00;5011249;28;45449;-72
2023/04/08 01:41:03;;;;;;;;;1.67;1.67;;;;;22.86;35.97;102179.66;4994769;28;45395;-72
2023/04/08 01:43:31;;;;;;;;;2.00;1.00;;;;;22.92;36.07;102188.84;4994584;28;46363;-72
2023/04/08 01:45:57;;;;;;;;;1.00;1.00;;;;;22.90;35.92;102191.63;4994776;28;45426;-72
2023/04/08 01:48:23;;;;;;;;;1.67;1.67;;;;;22.89;35.79;102184.66;4994441;28;45936;-71
2023/04/08 01:50:50;;;;;;;;;1.33;1.00;;;;;22.85;35.85;102183.28;4994466;28;45381;-72
2023/04/08 01:53:16;;;;;;;;;1.00;1.00;;;;;22.89;35.70;102192.63;4994666;28;46202;-72
2023/04/08 01:55:42;;;;;;;;;1.67;1.00;;;;;22.83;35.37;102179.94;4994340;28;45489;-71
2023/04/08 01:58:11;;;;;;;;;1.00;1.00;;;;;22.87;36.00;102191.94;4994645;28;45354;-72
2023/04/08 02:00:39;;;;;;;;;1.00;1.00;;;;;22.85;35.93;102194.75;4994534;28;45411;-72
2023/04/08 02:03:06;;;;;;;;;1.00;1.00;;;;;22.84;35.63;102192.25;5038898;28;46460;-72
2023/04/08 02:05:32;;;;;;;;;2.00;2.00;;;;;22.84;35.95;102206.34;5076591;28;45289;-72
2023/04/08 02:07:57;;;;;;;;;2.67;1.33;;;;;22.84;36.03;102208.16;5076869;28;45331;-71
2023/04/08 02:10:23;;;;;;;;;0.33;0.33;;;;;22.82;36.06;102202.19;5076446;28;45512;-72
2023/04/08 02:12:48;;;;;;;;;1.67;0.33;;;;;22.82;35.87;102200.34;5076720;28;45402;-72
2023/04/08 02:15:14;;;;;;;;;3.00;2.67;;;;;22.82;36.05;102203.00;5076693;28;45420;-72
2023/04/08 02:17:49;;;;;;;;;1.00;1.00;;;;;22.82;36.05;102205.66;5076282;28;45272;-72
2023/04/08 02:20:17;;;;;;;;;1.00;0.67;;;;;22.82;35.58;102202.19;5075893;28;45380;-72
2023/04/08 02:22:58;;;;;;;;;1.00;1.00;;;;;22.81;35.43;102201.34;5076383;28;47421;-71
2023/04/08 02:25:27;;;;;;;;;1.67;1.00;;;;;22.79;35.79;102198.03;5076354;28;45290;-72
2023/04/08 02:27:54;;;;;;;;;1.00;1.00;;;;;22.82;35.58;102210.97;5076498;28;45375;-72
2023/04/08 02:30:21;;;;;;;;;1.00;1.00;;;;;22.73;35.87;102196.81;5076155;28;45594;-72
2023/04/08 02:32:47;;;;;;;;;1.00;0.33;;;;;22.78;35.32;102206.13;5075798;28;45379;-71
2023/04/08 02:35:15;;;;;;;;;0.00;0.00;;;;;22.82;35.98;102208.31;5076278;28;45368;-71
2023/04/08 02:37:40;;;;;;;;;3.00;1.33;;;;;22.81;35.80;102211.97;5075948;28;45451;-71
2023/04/08 02:40:25;;;;;;;;;1.00;0.00;;;;;22.82;35.68;102215.47;5076344;28;45336;-72
2023/04/08 02:42:51;;;;;;;;;0.67;0.67;;;;;22.81;35.17;102214.63;5076116;28;45371;-72
2023/04/08 02:45:17;;;;;;;;;1.00;1.00;;;;;22.81;35.12;102206.66;5075366;28;45435;-72
2023/04/08 02:47:43;;;;;;;;;1.33;1.33;;;;;22.80;35.08;102207.63;5075824;28;45613;-72
2023/04/08 02:50:09;;;;;;;;;1.00;1.00;;;;;22.77;35.26;102205.28;5076116;28;45348;-72
2023/04/08 02:52:34;;;;;;;;;2.00;2.00;;;;;22.83;35.45;102214.44;5075743;28;47605;-72
2023/04/08 02:54:59;;;;;;;;;1.67;1.00;;;;;22.83;35.63;102223.25;5076021;28;45337;-72
2023/04/08 02:57:25;;;;;;;;;1.00;1.00;;;;;22.83;35.59;102214.44;5076023;28;45319;-72
2023/04/08 02:59:50;;;;;;;;;2.00;2.00;;;;;22.84;34.93;102222.28;5076201;28;45387;-72
2023/04/08 03:02:16;;;;;;;;;1.00;1.00;;;;;22.84;35.27;102222.28;5075496;28;45352;-72
2023/04/08 03:04:41;;;;;;;;;0.67;0.67;;;;;22.84;35.12;102211.66;5075968;28;45317;-72
2023/04/08 03:07:06;;;;;;;;;1.00;1.00;;;;;22.84;35.40;102213.47;5075964;28;45286;-72
2023/04/08 03:09:32;;;;;;;;;0.33;0.33;;;;;22.85;35.17;102220.44;5075833;28;45213;-71
2023/04/08 03:11:57;;;;;;;;;2.67;2.00;;;;;22.84;35.57;102216.13;5075815;28;45229;-72
2023/04/08 03:14:22;;;;;;;;;3.67;1.67;;;;;22.82;35.14;102218.91;5075704;28;45321;-72
2023/04/08 03:16:48;;;;;;;;;1.00;1.00;;;;;22.82;35.27;102215.47;5075535;28;45627;-71
2023/04/08 03:19:13;;;;;;;;;0.67;0.67;;;;;22.81;35.00;102219.91;5075961;28;45297;-72
2023/04/08 03:21:39;;;;;;;;;1.00;1.00;;;;;22.81;35.09;102216.44;5075573;28;46294;-72
2023/04/08 03:24:04;;;;;;;;;1.33;1.33;;;;;22.80;35.59;102220.91;5075514;28;45348;-72
2023/04/08 03:26:30;;;;;;;;;0.00;0.00;;;;;22.79;35.11;102215.75;5075838;28;45237;-72
2023/04/08 03:28:55;;;;;;;;;1.67;1.67;;;;;22.79;35.54;102219.25;5075767;28;45297;-71
2023/04/08 03:31:20;;;;;;;;;1.00;1.00;;;;;22.76;35.11;102213.41;5074900;28;46139;-72
2023/04/08 03:33:46;;;;;;;;;1.00;1.00;;;;;22.80;35.59;102217.41;5075518;28;45352;-72
2023/04/08 03:36:11;;;;;;;;;0.67;0.67;;;;;22.80;35.12;102209.44;5075337;28;45347;-71
2023/04/08 03:38:37;;;;;;;;;2.00;2.00;;;;;22.77;35.54;102213.22;5075414;28;45388;-70
2023/04/08 03:41:02;;;;;;;;;1.33;0.00;;;;;22.74;35.53;102210.91;5075378;28;45379;-72
2023/04/08 03:43:27;;;;;;;;;2.33;1.00;;;;;22.79;35.22;102221.06;5075508;28;45330;-72
2023/04/08 03:45:54;;;;;;;;;0.00;0.00;;;;;22.68;35.71;102204.34;5075360;28;45400;-72
2023/04/08 03:48:19;;;;;;;;;1.00;1.00;;;;;22.71;35.58;102206.75;5075588;28;45415;-71
2023/04/08 03:50:44;;;;;;;;;2.00;2.00;;;;;22.76;35.69;102216.88;5075025;28;47294;-72
2023/04/08 03:53:11;;;;;;;;;1.00;1.00;;;;;22.76;35.68;102224.00;5075214;28;45395;-72
2023/04/08 03:55:36;;;;;;;;;1.33;1.00;;;;;22.74;35.76;102218.88;5076506;28;45368;-72
2023/04/08 03:58:02;;;;;;;;;1.00;1.00;;;;;22.74;35.61;102219.69;5078868;28;45336;-72
2023/04/08 04:00:27;;;;;;;;;1.00;1.00;;;;;22.73;35.15;102218.03;5078368;28;45865;-72
2023/04/08 04:02:54;;;;;;;;;2.00;1.67;;;;;22.73;35.12;102223.34;5078584;28;45399;-72
2023/04/08 04:05:19;;;;;;;;;2.00;2.00;;;;;22.73;35.57;102219.84;5078909;28;45353;-72
2023/04/08 04:07:45;;;;;;;;;2.00;0.33;;;;;22.73;35.54;102225.16;5078756;28;45313;-71
2023/04/08 04:10:10;;;;;;;;;1.75;1.25;;;;;22.73;35.57;102230.44;5078332;28;46019;-71
2023/04/08 04:12:36;;;;;;;;;1.33;1.33;;;;;22.73;34.86;102222.50;5078524;28;45416;-71
2023/04/08 04:15:01;;;;;;;;;0.00;0.00;;;;;22.74;35.12;102237.44;5060165;28;45367;-72
2023/04/08 04:17:26;;;;;;;;;1.67;1.33;;;;;22.74;35.09;102224.97;5078424;28;45393;-71
2023/04/08 04:19:52;;;;;;;;;1.00;1.00;;;;;22.73;34.96;102225.16;5078478;28;45916;-72
2023/04/08 04:22:17;;;;;;;;;2.33;2.00;;;;;22.74;35.12;102227.63;5078302;28;45391;-71
2023/04/08 04:24:46;;;;;;;;;3.00;1.00;;;;;22.76;34.85;102232.81;5078609;28;45307;-72
2023/04/08 04:27:11;;;;;;;;;1.67;1.00;;;;;22.76;34.65;102230.16;5078440;28;45240;-71
2023/04/08 04:29:37;;;;;;;;;1.00;1.00;;;;;22.74;34.88;102224.97;5077293;28;59858;-72
2023/04/08 04:32:02;;;;;;;;;1.00;1.00;;;;;22.76;34.61;102227.50;5077857;28;51763;-72
2023/04/08 04:34:27;;;;;;;;;0.67;0.67;;;;;22.76;34.66;102229.31;5078321;28;45580;-71
2023/04/08 04:36:53;;;;;;;;;0.00;0.00;;;;;22.78;35.40;102227.34;5078027;28;45302;-72
2023/04/08 04:39:18;;;;;;;;;1.67;1.00;;;;;22.76;34.85;102234.63;5078103;28;45268;-71
2023/04/08 04:41:43;;;;;;;;;2.00;1.33;;;;;22.77;35.39;102237.13;5078035;28;45207;-72
2023/04/08 04:44:09;;;;;;;;;1.00;1.00;;;;;22.69;35.05;102229.88;5077915;28;45281;-72
2023/04/08 04:46:34;;;;;;;;;2.00;1.33;;;;;22.76;34.96;102237.28;5078048;28;45254;-72
2023/04/08 04:49:00;;;;;;;;;2.00;1.00;;;;;22.75;35.22;102241.75;5077925;28;46098;-72
2023/04/08 04:51:26;;;;;;;;;2.33;1.33;;;;;22.70;35.42;102234.25;5077799;28;45403;-72
2023/04/08 04:53:51;;;;;;;;;1.00;1.00;;;;;22.73;35.38;102247.22;5077954;28;45521;-72
2023/04/08 04:56:17;;;;;;;;;1.00;1.00;;;;;22.72;34.76;102248.19;5077757;28;45516;-71
2023/04/08 04:58:42;;;;;;;;;1.00;1.00;;;;;22.71;35.18;102251.00;5077374;28;46113;-71
2023/04/08 05:01:07;;;;;;;;;1.00;1.00;;;;;22.72;35.39;102258.78;5077765;28;45431;-72
2023/04/08 05:03:33;;;;;;;;;2.25;2.25;;;;;22.69;34.82;102256.41;5077824;28;45476;-72
2023/04/08 05:05:58;;;;;;;;;2.00;2.00;;;;;22.66;34.94;102247.94;5077941;28;45332;-72
2023/04/08 05:08:24;;;;;;;;;1.33;1.33;;;;;22.70;35.28;102254.63;5076890;28;45359;-71
2023/04/08 05:10:49;;;;;;;;;1.00;1.00;;;;;22.69;35.04;102258.25;5077451;28;45359;-72
2023/04/08 05:13:15;;;;;;;;;4.00;2.33;;;;;22.68;34.75;102262.72;5077456;28;45677;-72
2023/04/08 05:15:41;;;;;;;;;1.00;1.00;;;;;22.57;35.40;102245.19;5077546;28;45309;-72
2023/04/08 05:18:06;;;;;;;;;0.00;0.00;;;;;22.68;35.15;102261.88;5077259;28;46351;-72
2023/04/08 05:20:32;;;;;;;;;1.00;1.00;;;;;22.68;34.89;102270.69;5077417;28;45286;-72
2023/04/08 05:22:57;;;;;;;;;1.00;1.00;;;;;22.70;34.77;102267.91;5077408;28;46329;-72
2023/04/08 05:25:23;;;;;;;;;1.67;1.00;;;;;22.38;34.82;102216.97;5077416;28;45400;-72
2023/04/08 05:27:48;;;;;;;;;1.00;1.00;;;;;22.69;35.30;102266.22;5077302;28;45439;-72
2023/04/08 05:30:15;;;;;;;;;0.33;0.33;;;;;22.67;34.72;102268.16;5077285;28;45388;-71
2023/04/08 05:32:40;;;;;;;;;1.00;1.00;;;;;22.70;35.35;102275.84;5077184;27;45211;-72
2023/04/08 05:35:06;;;;;;;;;2.00;1.33;;;;;22.70;35.19;102281.16;5077345;28;45456;-72
2023/04/08 05:37:31;;;;;;;;;2.00;2.00;;;;;22.69;34.74;102285.59;5076872;28;45375;-71
2023/04/08 05:39:57;;;;;;;;;2.67;1.00;;;;;22.68;34.83;102277.78;5076779;28;45437;-72
2023/04/08 05:42:22;;;;;;;;;1.00;1.00;;;;;22.70;34.47;102282.00;5077281;28;45320;-71
2023/04/08 05:44:47;;;;;;;;;0.33;0.33;;;;;22.69;34.62;102285.59;5077066;28;45377;-71
2023/04/08 05:47:13;;;;;;;;;2.00;2.00;;;;;22.71;34.41;102296.09;5076937;28;46090;-71
2023/04/08 05:49:39;;;;;;;;;1.00;1.00;;;;;22.71;34.64;102298.75;5076947;28;45359;-72
2023/04/08 05:52:05;;;;;;;;;1.33;1.33;;;;;22.70;34.27;102300.56;5076864;28;45503;-72
2023/04/08 05:54:31;;;;;;;;;1.00;1.00;;;;;22.70;34.81;102305.88;5076655;28;45371;-71
2023/04/08 05:56:56;;;;;;;;;0.67;0.67;;;;;22.71;34.68;102307.56;5076628;28;46020;-71
2023/04/08 05:59:21;;;;;;;;;0.67;0.67;;;;;22.72;34.42;102311.03;5076832;28;45399;-71
2023/04/08 06:01:47;;;;;;;;;1.00;1.00;;;;;22.72;34.82;102316.31;5076600;28;45376;-71
2023/04/08 06:04:12;;;;;;;;;0.67;0.67;;;;;22.70;34.64;102308.53;5076928;28;45313;-72
2023/04/08 06:06:40;;;;;;;;;2.00;0.00;;;;;22.73;34.82;102320.66;5076678;28;46002;-72
2023/04/08 06:09:05;;;;;;;;;1.33;1.33;;;;;22.74;35.04;102322.34;5076294;28;45218;-72
2023/04/08 06:11:31;;;;;;;;;1.00;1.00;;;;;22.74;34.81;102332.97;5076701;28;45847;-71
2023/04/08 06:13:56;;;;;;;;;2.33;1.00;;;;;22.76;35.10;102340.75;5076860;28;45282;-72
2023/04/08 06:16:21;;;;;;;;;1.00;1.00;;;;;22.74;34.47;102339.06;5076342;28;45381;-71
2023/04/08 06:18:47;;;;;;;;;1.00;1.00;;;;;22.70;34.75;102334.22;5075406;28;45391;-71
2023/04/08 06:21:12;;;;;;;;;1.67;0.00;;;;;22.74;34.68;102341.72;5076577;28;45448;-72
2023/04/08 06:23:38;;;;;;;;;1.00;1.00;;;;;22.75;34.55;102347.88;5076174;28;45427;-72
2023/04/08 06:26:03;;;;;;;;;1.00;1.00;;;;;22.66;34.90;102331.00;5076551;28;46153;-72
2023/04/08 06:28:29;;;;;;;;;1.00;1.00;;;;;22.76;34.99;102346.91;5076420;28;45428;-72
2023/04/08 06:30:55;;;;;;;;;0.00;0.00;;;;;22.70;34.82;102337.72;5076491;28;45351;-70
2023/04/08 06:33:21;;;;;;;;;1.25;1.25;;;;;22.77;34.96;102353.06;5076421;28;45321;-71
2023/04/08 06:35:46;;;;;;;;;1.00;1.00;;;;;22.77;34.80;102348.56;5076064;28;45936;-71
2023/04/08 06:38:11;;;;;;;;;1.67;1.67;;;;;22.79;34.47;102353.72;5075617;28;46120;-72
2023/04/08 06:40:38;;;;;;;;;1.00;1.00;;;;;22.79;34.80;102354.56;5076473;28;45418;-70
2023/04/08 06:43:05;;;;;;;;;1.00;1.00;;;;;22.80;34.91;102361.53;5076088;28;45509;-72
2023/04/08 06:45:31;;;;;;;;;2.00;2.00;;;;;22.72;35.11;102340.22;5075844;28;46043;-71
2023/04/08 06:47:56;;;;;;;;;1.00;1.00;;;;;22.77;34.41;102353.06;5076098;28;45395;-70
2023/04/08 06:50:21;;;;;;;;;1.00;1.00;;;;;22.81;34.34;102357.06;5075996;28;45428;-70
2023/04/08 06:52:47;;;;;;;;;0.67;0.33;;;;;22.82;35.01;102361.41;5075865;28;45371;-71
2023/04/08 06:55:12;;;;;;;;;1.00;1.00;;;;;22.79;34.27;102356.38;5075833;28;50704;-72
2023/04/08 06:57:37;;;;;;;;;2.00;2.00;;;;;22.81;34.56;102365.88;5075956;28;45354;-72
2023/04/08 07:00:03;;;;;;;;;4.00;2.00;;;;;22.81;34.70;102362.38;5076119;28;45438;-71
2023/04/08 07:02:29;;;;;;;;;1.00;1.00;;;;;22.81;34.38;102354.41;5076058;28;45518;-71
2023/04/08 07:04:54;;;;;;;;;2.00;2.00;;;;;22.82;34.69;102361.41;5075877;28;46326;-71
2023/04/08 07:07:19;;;;;;;;;0.33;0.33;;;;;22.82;34.84;102367.53;5075671;28;45420;-71
2023/04/08 07:09:45;;;;;;;;;4.33;1.00;;;;;22.84;34.73;102370.03;5075796;28;45384;-71
2023/04/08 07:12:11;;;;;;;;;1.00;1.00;;;;;22.84;34.59;102373.53;5075892;28;45509;-71
2023/04/08 07:14:37;;;;;;;;;1.00;1.00;;;;;22.85;34.13;102374.34;5075701;28;46412;-71
2023/04/08 07:17:02;;;;;;;;;1.00;1.00;;;;;22.87;34.68;102385.69;5075634;28;45341;-71
2023/04/08 07:19:27;;;;;;;;;1.00;1.00;;;;;22.82;34.42;102374.66;5075681;28;45370;-71
2023/04/08 07:21:53;;;;;;;;;1.00;1.00;;;;;22.89;34.62;102383.69;5075116;28;48257;-71
2023/04/08 07:24:18;;;;;;;;;1.00;1.00;;;;;22.91;34.77;102381.72;5057368;28;47241;-71
2023/04/08 07:26:43;;;;;;;;;2.00;1.33;;;;;22.89;34.13;102383.69;5075666;28;45257;-71
2023/04/08 07:29:09;;;;;;;;;0.33;0.33;;;;;22.89;34.81;102386.34;5075739;28;45372;-72
2023/04/08 07:31:35;;;;;;;;;1.00;1.00;;;;;22.93;34.67;102392.19;5078159;28;45428;-72
2023/04/08 07:34:00;;;;;;;;;2.00;1.00;;;;;22.90;34.33;102388.00;5078962;28;46070;-70
2023/04/08 07:36:27;;;;;;;;;1.67;1.33;;;;;22.95;34.31;102399.00;5078701;28;45439;-70
2023/04/08 07:38:52;;;;;;;;;0.00;0.00;;;;;22.94;34.53;102394.72;5079279;28;45383;-72
2023/04/08 07:41:17;;;;;;;;;3.00;2.00;;;;;22.96;34.66;102394.53;5079077;28;45369;-71
2023/04/08 07:43:43;;;;;;;;;0.33;0.33;;;;;22.97;34.08;102396.22;5079010;28;47005;-71
2023/04/08 07:46:08;;;;;;;;;3.67;2.00;;;;;22.98;34.77;102397.88;5078797;28;45367;-71
2023/04/08 07:48:34;;;;;;;;;1.00;1.00;;;;;22.99;34.76;102398.72;5079122;28;45521;-71
2023/04/08 07:51:07;;;;;;;;;0.00;0.00;;;;;22.98;34.78;102397.88;5078573;28;45408;-72
2023/04/08 07:53:33;;;;;;;;;1.00;1.00;;;;;22.91;34.40;102392.34;5078798;28;46000;-72
2023/04/08 07:55:59;;;;;;;;;1.67;1.00;;;;;22.99;34.20;102404.88;5078673;28;45309;-71
2023/04/08 07:58:25;;;;;;;;;0.33;0.33;;;;;22.90;34.42;102382.69;5079100;28;45275;-72
2023/04/08 08:00:51;;;;;;;;;1.33;1.33;;;;;23.00;34.66;102401.25;5078633;28;45454;-72
2023/04/08 08:03:16;;;;;;;;;3.50;1.75;;;;;22.93;34.21;102397.50;5078518;28;47240;-71
2023/04/08 08:05:42;;;;;;;;;1.33;1.33;;;;;23.01;34.29;102413.50;5078213;28;45288;-72
2023/04/08 08:08:10;;;;;;;;;0.33;0.33;;;;;22.93;34.45;102403.63;5078795;28;45344;-71
2023/04/08 08:10:35;;;;;;;;;1.00;1.00;;;;;23.00;34.62;102411.88;5078537;28;45736;-72
2023/04/08 08:13:01;;;;;;;;;2.00;2.00;;;;;23.03;34.64;102418.69;5078515;28;46023;-72
2023/04/08 08:15:26;;;;;;;;;2.33;1.00;;;;;22.98;34.50;102402.38;5078211;28;50932;-71
2023/04/08 08:17:51;;;;;;;;;2.00;1.00;;;;;23.03;34.01;102416.03;5078461;28;45367;-71
2023/04/08 08:20:17;;;;;;;;;1.00;1.00;;;;;23.02;34.72;102415.19;5078096;28;45305;-71
2023/04/08 08:22:44;;;;;;;;;3.00;2.00;;;;;23.04;34.71;102417.69;5078342;28;45351;-71
2023/04/08 08:25:09;;;;;;;;;1.00;1.00;;;;;23.04;34.04;102415.88;5078303;28;45411;-71
2023/04/08 08:27:35;;;;;;;;;0.00;0.00;;;;;23.05;33.98;102427.34;5078391;28;46080;-72
2023/04/08 08:30:01;;;;;;;;;2.33;1.33;;;;;23.01;34.27;102410.03;5078238;28;45508;-71
2023/04/08 08:32:26;;;;;;;;;2.00;2.00;;;;;23.05;34.58;102416.72;5078212;28;46826;-71
2023/04/08 08:34:51;;;;;;;;;0.00;0.00;;;;;23.05;33.99;102417.56;5077882;28;45430;-71
2023/04/08 08:37:16;;;;;;;;;1.00;1.00;;;;;23.06;34.32;102429.84;5077923;28;45390;-71
2023/04/08 08:39:42;;;;;;;;;0.00;0.00;;;;;23.07;34.61;102442.13;5078182;28;45289;-71
2023/04/08 08:42:18;;;;;;;;;0.33;0.33;;;;;23.00;34.22;102425.13;5076733;28;53931;-72
2023/04/08 08:44:45;;;;;;;;;1.00;1.00;;;;;23.06;34.50;102427.19;5078005;28;45432;-71
2023/04/08 08:47:10;;;;;;;;;1.00;1.00;;;;;23.07;34.13;102436.81;5078070;28;45311;-71
2023/04/08 08:49:36;;;;;;;;;2.00;2.00;;;;;23.07;33.97;102434.16;5077619;28;45297;-72
2023/04/08 08:52:01;;;;;;;;;0.67;0.67;;;;;23.07;34.13;102446.59;5077891;28;45502;-71
2023/04/08 08:54:26;;;;;;;;;2.00;1.00;;;;;23.03;34.12;102427.47;5077025;28;45680;-72
2023/04/08 08:56:52;;;;;;;;;1.00;1.00;;;;;23.07;34.56;102439.47;5077870;28;45326;-72
2023/04/08 08:59:17;;;;;;;;;1.00;1.00;;;;;23.09;34.40;102443.78;5077829;28;45384;-72
2023/04/08 09:01:43;;;;;;;;;1.00;1.00;;;;;23.10;34.55;102453.44;5077639;28;45368;-71
2023/04/08 09:04:09;;;;;;;;;1.00;1.00;;;;;23.10;34.57;102448.13;5077364;28;45292;-72
2023/04/08 09:06:36;;;;;;;;;0.67;0.67;;;;;23.04;34.08;102438.94;5078035;28;45397;-71
2023/04/08 09:09:04;;;;;;;;;1.00;1.00;;;;;23.00;34.06;102434.91;5077373;28;45446;-72
2023/04/08 09:11:30;;;;;;;;;1.00;1.00;;;;;23.10;34.01;102445.47;5077627;28;46251;-72
2023/04/08 09:13:56;;;;;;;;;1.00;1.00;;;;;23.02;34.59;102430.28;5077558;28;45323;-72
2023/04/08 09:16:22;;;;;;;;;1.33;1.00;;;;;23.09;34.15;102441.97;5077571;28;45400;-70
2023/04/08 09:18:48;;;;;;;;;1.67;0.33;;;;;22.99;34.33;102430.56;5077306;28;45482;-71
2023/04/08 09:21:15;;;;;;;;;1.00;1.00;;;;;23.10;34.09;102448.97;5077310;28;45400;-72
2023/04/08 09:23:43;;;;;;;;;1.00;1.00;;;;;23.10;34.10;102456.94;5077523;28;45365;-71
2023/04/08 09:26:23;;;;;;;;;0.67;0.67;;;;;23.11;34.25;102442.66;5077452;28;45352;-71
2023/04/08 09:29:09;;;;;;;;;1.00;1.00;;;;;23.11;34.26;102447.16;5077229;28;45415;-71
2023/04/08 09:31:40;;;;;;;;;1.00;1.00;;;;;23.10;34.29;102445.47;5076467;28;47094;-71
2023/04/08 09:34:26;;;;;;;;;0.67;0.67;;;;;23.10;33.73;102453.44;5077022;28;45300;-71
2023/04/08 09:36:52;;;;;;;;;1.00;1.00;;;;;23.11;34.31;102452.47;5077114;27;45437;-72
2023/04/08 09:39:18;;;;;;;;;1.00;1.00;;;;;23.10;34.33;102443.66;5077280;28;45453;-71
2023/04/08 09:41:43;;;;;;;;;1.00;1.00;;;;;23.09;34.39;102452.59;5076895;28;45764;-72
2023/04/08 09:44:11;;;;;;;;;2.00;0.67;;;;;23.09;34.19;102444.63;5077145;28;45482;-72
2023/04/08 09:46:46;;;;;;;;;1.00;1.00;;;;;23.08;34.30;102445.63;5076703;28;45438;-71
2023/04/08 09:49:25;;;;;;;;;0.00;0.00;;;;;23.07;34.23;102442.13;5077118;28;45285;-71
2023/04/08 09:52:09;;;;;;;;;1.00;1.00;;;;;23.08;34.00;102464.22;5076622;28;47027;-72
2023/04/08 09:54:59;;;;;;;;;1.00;1.00;;;;;23.09;33.87;102452.59;5076646;28;45379;-71
2023/04/08 09:57:50;;;;;;;;;1.33;1.33;;;;;23.07;34.15;102444.78;5076225;28;45347;-72
2023/04/08 10:00:17;;;;;;;;;1.67;1.67;;;;;23.08;33.72;102448.28;5076494;28;45342;-71
2023/04/08 10:02:57;;;;;;;;;0.00;0.00;;;;;23.06;33.88;102440.44;5076366;28;47012;-72
2023/04/08 10:05:24;;;;;;;;;1.00;1.00;;;;;23.07;34.28;102451.91;5076590;28;45349;-71
2023/04/08 10:07:50;;;;;;;;;1.00;1.00;;;;;23.04;33.89;102441.59;5076965;28;45348;-71
2023/04/08 10:10:15;;;;;;;;;0.00;0.00;;;;;23.06;33.92;102431.66;5058035;28;45320;-72
2023/04/08 10:12:42;;;;;;;;;0.00;0.00;;;;;23.00;33.99;102434.91;5076460;28;45926;-72
2023/04/08 10:15:26;;;;;;;;;0.67;0.67;;;;;23.05;34.12;102435.31;5076460;28;45379;-72
2023/04/08 10:18:19;;;;;;;;;1.00;1.00;;;;;23.05;33.89;102435.31;5076578;28;45426;-72
2023/04/08 10:20:46;;;;;;;;;1.33;0.00;;;;;23.04;33.98;102430.97;5063699;28;45578;-72
2023/04/08 10:23:14;;;;;;;;;3.00;2.00;;;;;23.05;34.38;102430.84;5058201;28;48004;-72
2023/04/08 10:25:41;;;;;;;;;1.00;1.00;;;;;23.05;33.86;102433.50;5076250;28;45390;-72
2023/04/08 10:28:10;;;;;;;;;1.67;1.67;;;;;23.04;33.92;102429.16;5076527;28;45265;-72
2023/04/08 10:30:43;;;;;;;;;1.00;1.00;;;;;23.04;33.61;102426.50;5076022;28;45421;-72
2023/04/08 10:33:21;;;;;;;;;1.00;0.00;;;;;23.04;34.05;102441.59;5076169;28;47461;-72
2023/04/08 10:35:48;;;;;;;;;1.00;1.00;;;;;23.03;33.97;102440.75;5057920;28;45309;-72
2023/04/08 10:38:15;;;;;;;;;0.33;0.33;;;;;23.03;33.83;102431.97;5075860;28;45363;-72
2023/04/08 10:40:41;;;;;;;;;2.00;0.67;;;;;23.02;34.08;102441.75;5075877;28;45400;-71
2023/04/08 10:43:12;;;;;;;;;1.33;1.33;;;;;23.03;33.69;102434.63;5075892;28;47369;-71
2023/04/08 10:45:38;;;;;;;;;2.00;1.00;;;;;23.02;33.98;102430.28;5075868;28;45380;-72
2023/04/08 10:48:24;;;;;;;;;1.00;1.00;;;;;23.01;33.50;102436.56;5076151;28;45406;-71
2023/04/08 10:50:57;;;;;;;;;0.67;0.67;;;;;23.01;34.22;102442.72;5075539;28;45361;-71
2023/04/08 10:53:31;;;;;;;;;0.00;0.00;;;;;23.02;34.06;102435.59;5075780;28;47328;-71
2023/04/08 10:56:06;;;;;;;;;2.33;1.00;;;;;23.01;33.74;102432.09;5075929;28;45301;-71
2023/04/08 10:58:32;;;;;;;;;0.00;0.00;;;;;23.03;33.86;102439.94;5076087;28;45276;-71
2023/04/08 11:01:06;;;;;;;;;1.00;1.00;;;;;23.02;34.00;102430.28;5074696;28;45506;-72
2023/04/08 11:03:35;;;;;;;;;1.00;1.00;;;;;23.02;33.49;102423.16;5075788;28;46362;-71
2023/04/08 11:06:01;;;;;;;;;0.33;0.00;;;;;23.02;34.06;102420.50;5075051;28;45381;-72
2023/04/08 11:08:34;;;;;;;;;1.00;1.00;;;;;23.01;34.06;102426.78;5076044;28;45243;-72
2023/04/08 11:11:07;;;;;;;;;1.33;1.00;;;;;23.02;33.96;102431.13;5075590;28;45335;-72
2023/04/08 11:13:35;;;;;;;;;1.00;1.00;;;;;23.03;33.85;102427.47;5075264;28;46221;-71
2023/04/08 11:16:03;;;;;;;;;0.67;0.67;;;;;23.02;33.61;102425.81;5075468;28;45321;-71
2023/04/08 11:18:30;;;;;;;;;0.00;0.00;;;;;22.94;33.72;102418.59;5075846;28;45310;-71
2023/04/08 11:20:56;;;;;;;;;0.00;0.00;;;;;22.96;33.66;102410.47;5075727;28;45310;-72
2023/04/08 11:23:24;;;;;;;;;1.00;1.00;;;;;23.02;33.55;102415.19;5075700;28;45395;-70
2023/04/08 11:25:50;;;;;;;;;1.00;1.00;;;;;22.97;33.59;102409.50;5075529;28;45399;-72